createdAt,value
2022-08-26T00:11:54.924Z,100.00
2022-08-26T00:26:57.136Z,100.00
2022-08-26T00:42:00.513Z,100.00
2022-08-26T00:57:08.708Z,100.00
2022-08-26T01:12:21.985Z,100.00
2022-08-26T01:27:24.652Z,100.00
2022-08-26T01:42:27.366Z,100.00
2022-08-26T01:57:30.845Z,100.00
2022-08-26T02:12:35.401Z,100.00
2022-08-26T02:27:39.702Z,100.00
2022-08-26T02:42:42.490Z,100.00
2022-08-26T02:57:44.883Z,100.00
2022-08-26T03:12:48.093Z,100.00
2022-08-26T03:27:50.849Z,100.00
2022-08-26T03:42:53.927Z,100.00
2022-08-26T03:57:56.185Z,100.00
2022-08-26T04:12:59.885Z,100.00
2022-08-26T04:28:02.422Z,100.00
2022-08-26T04:43:05.696Z,100.00
2022-08-26T04:58:10.771Z,100.00
2022-08-26T05:13:15.549Z,100.00
2022-08-26T05:28:18.961Z,100.00
2022-08-26T05:43:22.181Z,100.00
2022-08-26T05:58:24.594Z,100.00
2022-08-26T06:13:30.243Z,100.00
2022-08-26T06:28:34.327Z,100.00
2022-08-26T06:43:36.726Z,100.00
2022-08-26T06:58:39.671Z,94.78
2022-08-26T07:13:43.001Z,89.74
2022-08-26T07:28:46.233Z,79.40
2022-08-26T07:43:48.778Z,74.36
2022-08-26T07:58:54.835Z,70.41
2022-08-26T08:13:57.245Z,77.30
2022-08-26T08:28:59.497Z,73.59
2022-08-26T08:44:01.865Z,74.44
2022-08-26T08:59:26.415Z,71.20
2022-08-26T09:14:28.857Z,58.88
2022-08-26T09:29:34.378Z,64.48
2022-08-26T09:45:00.500Z,59.02
2022-08-26T10:00:23.199Z,57.08
2022-08-26T10:15:29.819Z,51.74
2022-08-26T10:30:37.088Z,45.25
2022-08-26T10:45:50.389Z,42.47
2022-08-26T11:01:40.822Z,42.26
2022-08-26T11:16:44.897Z,67.01
2022-08-26T11:31:50.352Z,73.32
2022-08-26T11:47:00.298Z,100.00
2022-08-26T12:02:02.532Z,100.00
2022-08-26T12:17:17.846Z,100.00
2022-08-26T12:32:21.574Z,100.00
2022-08-26T12:47:41.866Z,100.00
2022-08-26T13:02:45.682Z,100.00
2022-08-26T13:17:47.926Z,100.00
2022-08-26T13:32:50.155Z,100.00
2022-08-26T13:47:53.279Z,100.00
2022-08-26T14:02:55.934Z,100.00
2022-08-26T14:17:58.411Z,100.00
2022-08-26T14:33:03.942Z,100.00
2022-08-26T14:48:06.278Z,100.00
2022-08-26T15:03:09.114Z,100.00
2022-08-26T15:18:11.442Z,100.00
2022-08-26T15:33:15.277Z,100.00
2022-08-26T15:48:17.892Z,100.00
2022-08-26T16:03:20.143Z,100.00
2022-08-26T16:18:23.708Z,100.00
2022-08-26T16:33:29.351Z,100.00
2022-08-26T16:48:31.898Z,100.00
2022-08-26T17:03:34.169Z,100.00
2022-08-26T17:18:37.272Z,100.00
2022-08-26T17:33:41.906Z,100.00
2022-08-26T17:48:44.149Z,100.00
2022-08-26T18:03:46.488Z,100.00
2022-08-26T18:18:48.798Z,100.00
2022-08-26T18:33:51.241Z,100.00
2022-08-26T18:48:54.304Z,100.00
2022-08-26T19:03:57.670Z,100.00
2022-08-26T19:19:01.406Z,100.00
2022-08-26T19:34:05.292Z,100.00
2022-08-26T19:49:07.576Z,100.00
2022-08-26T20:04:09.993Z,100.00
2022-08-26T20:19:34.346Z,100.00
2022-08-26T20:34:39.660Z,100.00
2022-08-26T20:49:41.904Z,100.00
2022-08-26T21:04:44.702Z,100.00
2022-08-26T21:19:47.068Z,100.00
2022-08-26T21:34:49.485Z,100.00
2022-08-26T21:49:51.902Z,100.00
2022-08-26T22:04:54.247Z,100.00
2022-08-26T22:19:57.560Z,100.00
2022-08-26T22:35:01.040Z,100.00
2022-08-26T22:50:04.505Z,100.00
2022-08-26T23:05:07.279Z,100.00
2022-08-26T23:20:11.554Z,100.00
2022-08-26T23:35:14.389Z,100.00
2022-08-26T23:50:20.587Z,100.00
